createdAt,value
2019-06-27T00:00:34.315Z,0
2019-06-27T00:01:44.542Z,0
2019-06-27T00:02:54.737Z,0
2019-06-27T00:04:04.888Z,0
2019-06-27T00:05:15.026Z,0
2019-06-27T00:06:25.135Z,0
2019-06-27T00:07:35.277Z,0
2019-06-27T00:08:45.436Z,0
2019-06-27T00:09:55.319Z,0
2019-06-27T00:11:05.195Z,0
2019-06-27T00:12:15.388Z,0
2019-06-27T00:13:25.498Z,0
2019-06-27T00:14:35.416Z,0
2019-06-27T00:15:45.611Z,0
2019-06-27T00:16:55.771Z,0
2019-06-27T00:18:05.887Z,0
2019-06-27T00:19:16.034Z,0
2019-06-27T00:20:26.139Z,0
2019-06-27T00:21:36.324Z,0
2019-06-27T00:22:48.602Z,0
2019-06-27T00:23:58.705Z,0
2019-06-27T00:25:08.872Z,0
2019-06-27T00:26:19.003Z,0
2019-06-27T00:27:29.148Z,0
2019-06-27T00:28:39.267Z,0
2019-06-27T00:29:49.391Z,0
2019-06-27T00:30:59.620Z,0
2019-06-27T00:32:09.742Z,0
2019-06-27T00:33:19.892Z,0
2019-06-27T00:34:30.022Z,0
2019-06-27T00:35:40.132Z,0
2019-06-27T00:36:50.244Z,0
2019-06-27T00:38:00.430Z,0
2019-06-27T00:39:10.610Z,0
2019-06-27T00:40:20.777Z,0
2019-06-27T00:41:31.449Z,0
2019-06-27T00:42:42.814Z,0
2019-06-27T00:43:52.958Z,0
2019-06-27T00:45:03.086Z,0
2019-06-27T00:46:13.191Z,0
2019-06-27T00:47:23.301Z,0
2019-06-27T00:48:33.163Z,0
2019-06-27T00:49:43.319Z,0
2019-06-27T00:50:53.436Z,0
2019-06-27T00:52:03.555Z,0
2019-06-27T00:53:13.658Z,0
2019-06-27T00:54:23.516Z,0
2019-06-27T00:55:33.636Z,0
2019-06-27T00:56:43.841Z,0
2019-06-27T00:57:53.957Z,0
2019-06-27T00:59:04.068Z,0
2019-06-27T01:00:14.185Z,0
2019-06-27T01:01:24.372Z,0
2019-06-27T01:02:34.495Z,0
2019-06-27T01:03:44.615Z,0
2019-06-27T01:04:54.741Z,0
2019-06-27T01:06:04.856Z,0
2019-06-27T01:07:15.160Z,0
2019-06-27T01:08:25.318Z,0
2019-06-27T01:09:35.473Z,0
2019-06-27T01:10:45.576Z,0
2019-06-27T01:11:55.699Z,0
2019-06-27T01:13:05.819Z,0
2019-06-27T01:14:15.936Z,0
2019-06-27T01:15:26.049Z,0
2019-06-27T01:16:36.180Z,0
2019-06-27T01:17:45.826Z,0
2019-06-27T01:18:55.941Z,0
2019-06-27T01:20:06.067Z,0
2019-06-27T01:21:16.175Z,0
2019-06-27T01:22:26.303Z,0
2019-06-27T01:23:36.404Z,0
2019-06-27T01:24:46.511Z,0
2019-06-27T01:25:56.680Z,0
2019-06-27T01:27:06.854Z,0
2019-06-27T01:28:17.207Z,0
2019-06-27T01:29:27.324Z,0
2019-06-27T01:30:37.432Z,0
2019-06-27T01:31:47.574Z,0
2019-06-27T01:32:57.703Z,0
2019-06-27T01:34:07.843Z,0
2019-06-27T01:35:17.967Z,0
2019-06-27T01:36:28.116Z,0
2019-06-27T01:37:38.253Z,0
2019-06-27T01:38:48.387Z,0
2019-06-27T01:39:58.509Z,0
2019-06-27T01:41:08.634Z,0
2019-06-27T01:42:18.752Z,0
2019-06-27T01:43:28.886Z,0
2019-06-27T01:44:39.099Z,0
2019-06-27T01:45:49.259Z,0
2019-06-27T01:46:59.591Z,0
2019-06-27T01:48:09.720Z,0
2019-06-27T01:49:19.826Z,0
2019-06-27T01:50:29.936Z,0
2019-06-27T01:51:39.426Z,0
2019-06-27T01:52:49.534Z,0
2019-06-27T01:53:59.647Z,0
2019-06-27T01:55:09.762Z,0
2019-06-27T01:56:19.879Z,0
2019-06-27T01:57:42.416Z,0
2019-06-27T01:58:55.712Z,0
2019-06-27T02:00:05.838Z,0
2019-06-27T02:01:15.975Z,0
2019-06-27T02:02:26.089Z,0
2019-06-27T02:03:36.223Z,0
2019-06-27T02:04:46.338Z,0
2019-06-27T02:05:56.439Z,0
2019-06-27T02:07:06.696Z,0
2019-06-27T02:08:16.824Z,0
2019-06-27T02:09:26.953Z,0
2019-06-27T02:10:38.972Z,0
2019-06-27T02:11:49.083Z,0
2019-06-27T02:12:58.849Z,0
2019-06-27T02:14:08.974Z,0
2019-06-27T02:15:22.024Z,0
2019-06-27T02:16:32.352Z,4
2019-06-27T02:17:42.482Z,4
2019-06-27T02:18:52.686Z,0
2019-06-27T02:20:02.540Z,0
2019-06-27T02:21:12.412Z,4
2019-06-27T02:22:22.521Z,0
2019-06-27T02:23:32.635Z,4
2019-06-27T02:24:42.869Z,4
2019-06-27T02:25:52.995Z,4
2019-06-27T02:27:03.108Z,8
2019-06-27T02:28:13.228Z,8
2019-06-27T02:29:23.331Z,4
2019-06-27T02:30:33.467Z,8
2019-06-27T02:31:43.586Z,12
2019-06-27T02:32:53.699Z,12
2019-06-27T02:34:08.960Z,16
2019-06-27T02:35:19.130Z,16
2019-06-27T02:36:29.264Z,20
2019-06-27T02:37:39.379Z,20
2019-06-27T02:38:49.511Z,24
2019-06-27T02:39:59.391Z,28
2019-06-27T02:41:09.518Z,28
2019-06-27T02:42:19.701Z,36
2019-06-27T02:43:29.910Z,36
2019-06-27T02:44:40.039Z,40
2019-06-27T02:45:50.257Z,44
2019-06-27T02:47:00.396Z,52
2019-06-27T02:48:10.181Z,56
2019-06-27T02:49:20.288Z,60
2019-06-27T02:50:30.422Z,64
2019-06-27T02:51:40.659Z,68
2019-06-27T02:52:50.803Z,80
2019-06-27T02:54:00.936Z,84
2019-06-27T02:55:11.061Z,100
2019-06-27T02:56:21.254Z,104
2019-06-27T02:57:31.393Z,112
2019-06-27T02:58:41.531Z,120
2019-06-27T02:59:51.655Z,132
2019-06-27T03:01:01.809Z,152
2019-06-27T03:02:11.939Z,164
2019-06-27T03:03:22.202Z,172
2019-06-27T03:04:32.365Z,196
2019-06-27T03:05:42.570Z,196
2019-06-27T03:06:52.791Z,200
2019-06-27T03:08:02.929Z,208
2019-06-27T03:09:13.140Z,220
2019-06-27T03:10:23.278Z,240
2019-06-27T03:11:33.401Z,256
2019-06-27T03:12:43.568Z,272
2019-06-27T03:13:53.708Z,296
2019-06-27T03:15:03.860Z,340
2019-06-27T03:16:14.042Z,336
2019-06-27T03:17:24.188Z,344
2019-06-27T03:18:34.309Z,348
2019-06-27T03:19:44.445Z,376
2019-06-27T03:20:54.604Z,400
2019-06-27T03:22:08.171Z,416
2019-06-27T03:23:18.289Z,424
2019-06-27T03:24:28.407Z,444
2019-06-27T03:25:38.528Z,472
2019-06-27T03:26:48.887Z,484
2019-06-27T03:27:59.052Z,512
2019-06-27T03:29:09.210Z,544
2019-06-27T03:30:19.661Z,568
2019-06-27T03:31:29.862Z,588
2019-06-27T03:32:40.049Z,640
2019-06-27T03:33:50.229Z,676
2019-06-27T03:35:00.380Z,716
2019-06-27T03:36:10.731Z,740
2019-06-27T03:37:20.958Z,768
2019-06-27T03:38:30.822Z,768
2019-06-27T03:39:40.945Z,768
2019-06-27T03:40:51.081Z,880
2019-06-27T03:42:01.429Z,864
2019-06-27T03:43:11.566Z,912
2019-06-27T03:44:21.841Z,908
2019-06-27T03:45:31.988Z,900
2019-06-27T03:46:42.099Z,940
2019-06-27T03:47:52.301Z,980
2019-06-27T03:49:02.423Z,1132
2019-06-27T03:50:12.573Z,1316
2019-06-27T03:51:22.703Z,1280
2019-06-27T03:52:32.581Z,1312
2019-06-27T03:53:42.724Z,1276
2019-06-27T03:54:52.846Z,1280
2019-06-27T03:56:02.968Z,1228
2019-06-27T03:57:13.101Z,1168
2019-06-27T03:58:23.254Z,1100
2019-06-27T03:59:33.371Z,1076
2019-06-27T04:00:43.269Z,1108
2019-06-27T04:01:53.433Z,1108
2019-06-27T04:03:03.583Z,1116
2019-06-27T04:04:13.833Z,1168
2019-06-27T04:05:23.980Z,1172
2019-06-27T04:06:34.143Z,1204
2019-06-27T04:07:44.274Z,1260
2019-06-27T04:08:54.036Z,1228
2019-06-27T04:10:04.163Z,1264
2019-06-27T04:11:14.298Z,1516
2019-06-27T04:12:24.449Z,1440
2019-06-27T04:13:34.572Z,1460
2019-06-27T04:14:44.725Z,1608
2019-06-27T04:15:54.500Z,1640
2019-06-27T04:17:04.620Z,1852
2019-06-27T04:18:14.761Z,1928
2019-06-27T04:19:24.886Z,2128
2019-06-27T04:20:35.011Z,2340
2019-06-27T04:21:45.140Z,1976
2019-06-27T04:22:55.269Z,1912
2019-06-27T04:24:05.413Z,2052
2019-06-27T04:25:15.665Z,2108
2019-06-27T04:26:26.044Z,2172
2019-06-27T04:27:36.193Z,2272
2019-06-27T04:28:46.395Z,2304
2019-06-27T04:29:56.528Z,2244
2019-06-27T04:31:06.692Z,2048
2019-06-27T04:32:16.833Z,2124
2019-06-27T04:33:26.994Z,2248
2019-06-27T04:34:37.129Z,2168
2019-06-27T04:35:47.305Z,2024
2019-06-27T04:36:57.443Z,2312
2019-06-27T04:38:07.586Z,2160
2019-06-27T04:39:17.728Z,2092
2019-06-27T04:40:27.596Z,2464
2019-06-27T04:41:37.781Z,2472
2019-06-27T04:42:47.915Z,2252
2019-06-27T04:43:58.054Z,2204
2019-06-27T04:45:08.198Z,2436
2019-06-27T04:46:18.378Z,2344
2019-06-27T04:47:28.520Z,3280
2019-06-27T04:48:38.713Z,3604
2019-06-27T04:49:48.893Z,3124
2019-06-27T04:50:59.129Z,2884
2019-06-27T04:52:09.303Z,2864
2019-06-27T04:53:19.472Z,2808
2019-06-27T04:54:29.596Z,2916
2019-06-27T04:55:39.710Z,3020
2019-06-27T04:56:49.831Z,2544
2019-06-27T04:57:59.949Z,2528
2019-06-27T04:59:10.094Z,2456
2019-06-27T05:00:20.239Z,2912
2019-06-27T05:01:30.378Z,3012
2019-06-27T05:02:40.503Z,2576
2019-06-27T05:03:50.633Z,2580
2019-06-27T05:05:00.781Z,2780
2019-06-27T05:06:10.919Z,2792
2019-06-27T05:07:21.041Z,2620
2019-06-27T05:08:31.182Z,2916
2019-06-27T05:09:41.117Z,2468
2019-06-27T05:10:51.227Z,2492
2019-06-27T05:12:01.349Z,2464
2019-06-27T05:13:11.548Z,3072
2019-06-27T05:14:21.669Z,2916
2019-06-27T05:15:31.795Z,2844
2019-06-27T05:16:41.915Z,3044
2019-06-27T05:17:51.675Z,3048
2019-06-27T05:19:02.518Z,3588
2019-06-27T05:20:12.678Z,3444
2019-06-27T05:21:22.811Z,3112
2019-06-27T05:22:32.948Z,2956
2019-06-27T05:23:43.151Z,2920
2019-06-27T05:24:53.267Z,2992
2019-06-27T05:26:03.385Z,2916
2019-06-27T05:27:13.550Z,2860
2019-06-27T05:28:23.679Z,2976
2019-06-27T05:29:33.792Z,3124
2019-06-27T05:30:43.936Z,3156
2019-06-27T05:31:54.057Z,3080
2019-06-27T05:33:04.188Z,2928
2019-06-27T05:34:14.331Z,2932
2019-06-27T05:35:24.491Z,3044
2019-06-27T05:36:34.617Z,2932
2019-06-27T05:37:44.757Z,3044
2019-06-27T05:38:54.879Z,2956
2019-06-27T05:40:04.742Z,2948
2019-06-27T05:41:14.890Z,2912
2019-06-27T05:42:25.034Z,2892
2019-06-27T05:43:35.173Z,2876
2019-06-27T05:44:45.299Z,2872
2019-06-27T05:45:55.429Z,2916
2019-06-27T05:47:05.321Z,3004
2019-06-27T05:48:15.450Z,3000
2019-06-27T05:49:25.581Z,2416
2019-06-27T05:50:35.700Z,2696
2019-06-27T05:51:45.886Z,2524
2019-06-27T05:52:55.998Z,2640
2019-06-27T05:54:06.234Z,2488
2019-06-27T05:55:16.364Z,2768
2019-06-27T05:56:26.472Z,2644
2019-06-27T05:57:36.600Z,2752
2019-06-27T05:58:46.751Z,3172
2019-06-27T05:59:59.824Z,2976
2019-06-27T06:01:10.047Z,3212
2019-06-27T06:02:20.167Z,3224
2019-06-27T06:03:30.354Z,3228
2019-06-27T06:04:40.234Z,3100
2019-06-27T06:05:50.500Z,3256
2019-06-27T06:07:00.638Z,3472
2019-06-27T06:08:10.758Z,3508
2019-06-27T06:09:20.356Z,2892
2019-06-27T06:10:30.520Z,3416
2019-06-27T06:11:40.697Z,3524
2019-06-27T06:12:50.587Z,3836
2019-06-27T06:14:00.722Z,4076
2019-06-27T06:15:10.876Z,4440
2019-06-27T06:16:21.010Z,5216
2019-06-27T06:17:31.148Z,5808
2019-06-27T06:18:41.416Z,5728
2019-06-27T06:19:51.875Z,6280
2019-06-27T06:21:02.008Z,5916
2019-06-27T06:22:12.144Z,5016
2019-06-27T06:23:22.280Z,5556
2019-06-27T06:24:32.450Z,5272
2019-06-27T06:25:42.593Z,4812
2019-06-27T06:26:52.726Z,4992
2019-06-27T06:28:02.947Z,4868
2019-06-27T06:29:12.815Z,4172
2019-06-27T06:30:23.413Z,3816
2019-06-27T06:31:33.573Z,3796
2019-06-27T06:32:43.715Z,3620
2019-06-27T06:33:53.834Z,3608
2019-06-27T06:35:04.196Z,3572
2019-06-27T06:36:14.357Z,3404
2019-06-27T06:37:24.464Z,3416
2019-06-27T06:38:34.844Z,3440
2019-06-27T06:39:45.006Z,3468
2019-06-27T06:40:55.114Z,3480
2019-06-27T06:42:05.285Z,3612
2019-06-27T06:43:15.494Z,3656
2019-06-27T06:44:25.652Z,3504
2019-06-27T06:45:35.764Z,3192
2019-06-27T06:46:45.926Z,3300
2019-06-27T06:47:56.088Z,2796
2019-06-27T06:49:06.239Z,3132
2019-06-27T06:50:16.410Z,2744
2019-06-27T06:51:26.583Z,3432
2019-06-27T06:52:36.764Z,3352
2019-06-27T06:53:47.074Z,3420
2019-06-27T06:54:57.238Z,3168
2019-06-27T06:56:07.018Z,3276
2019-06-27T06:57:17.155Z,3428
2019-06-27T06:58:26.972Z,3500
2019-06-27T06:59:37.111Z,3468
2019-06-27T07:01:03.466Z,3428
2019-06-27T07:02:13.601Z,3456
2019-06-27T07:03:23.733Z,3520
2019-06-27T07:04:33.878Z,3628
2019-06-27T07:05:43.763Z,3748
2019-06-27T07:06:53.962Z,3936
2019-06-27T07:08:04.120Z,4112
2019-06-27T07:09:14.330Z,4036
2019-06-27T07:10:24.467Z,4384
2019-06-27T07:11:34.597Z,4520
2019-06-27T07:12:44.741Z,4040
2019-06-27T07:13:54.858Z,4064
2019-06-27T07:15:05.005Z,4548
2019-06-27T07:16:15.156Z,4172
2019-06-27T07:17:25.349Z,3836
2019-06-27T07:18:35.463Z,4476
2019-06-27T07:19:45.377Z,4148
2019-06-27T07:20:55.539Z,3860
2019-06-27T07:22:05.655Z,3992
2019-06-27T07:23:15.793Z,4052
2019-06-27T07:24:25.914Z,4368
2019-06-27T07:25:36.028Z,5016
2019-06-27T07:26:46.156Z,4728
2019-06-27T07:27:56.318Z,4504
2019-06-27T07:29:06.476Z,4580
2019-06-27T07:30:16.681Z,4608
2019-06-27T07:31:26.825Z,4508
2019-06-27T07:32:36.962Z,4156
2019-06-27T07:33:47.092Z,3988
2019-06-27T07:34:57.207Z,3876
2019-06-27T07:36:07.368Z,3864
2019-06-27T07:37:17.487Z,3860
2019-06-27T07:38:27.601Z,3868
2019-06-27T07:39:37.722Z,3876
2019-06-27T07:40:47.851Z,3884
2019-06-27T07:41:58.052Z,3892
2019-06-27T07:43:08.021Z,3912
2019-06-27T07:44:20.306Z,3916
2019-06-27T07:45:30.220Z,3908
2019-06-27T07:46:40.365Z,3908
2019-06-27T07:47:50.243Z,3936
2019-06-27T07:49:00.363Z,3964
2019-06-27T07:50:10.521Z,3996
2019-06-27T07:51:20.642Z,4028
2019-06-27T07:52:30.843Z,4048
2019-06-27T07:53:40.986Z,4064
2019-06-27T07:54:51.133Z,4120
2019-06-27T07:56:01.399Z,4184
2019-06-27T07:57:11.527Z,4244
2019-06-27T07:58:21.665Z,4340
2019-06-27T07:59:31.794Z,4376
2019-06-27T08:00:41.925Z,4448
2019-06-27T08:01:51.801Z,4584
2019-06-27T08:03:02.056Z,4704
2019-06-27T08:04:12.355Z,4748
2019-06-27T08:05:22.504Z,4928
2019-06-27T08:06:32.660Z,5016
2019-06-27T08:07:42.780Z,5012
2019-06-27T08:08:52.927Z,5136
2019-06-27T08:10:02.832Z,5264
2019-06-27T08:11:12.964Z,5516
2019-06-27T08:12:23.082Z,4856
2019-06-27T08:13:33.779Z,5304
2019-06-27T08:14:43.934Z,5156
2019-06-27T08:15:54.056Z,5296
2019-06-27T08:17:04.202Z,5424
2019-06-27T08:18:14.375Z,5996
2019-06-27T08:19:24.518Z,5564
2019-06-27T08:20:34.654Z,5544
2019-06-27T08:21:45.013Z,5948
2019-06-27T08:22:55.134Z,6100
2019-06-27T08:24:05.282Z,5764
2019-06-27T08:25:15.445Z,5548
2019-06-27T08:26:25.569Z,5496
2019-06-27T08:27:35.706Z,5552
2019-06-27T08:28:45.832Z,5556
2019-06-27T08:29:56.014Z,5592
2019-06-27T08:31:06.146Z,5604
2019-06-27T08:32:16.273Z,5592
2019-06-27T08:33:26.409Z,5608
2019-06-27T08:34:36.544Z,5620
2019-06-27T08:35:46.695Z,5752
2019-06-27T08:36:56.932Z,5992
2019-06-27T08:38:07.189Z,5896
2019-06-27T08:39:17.426Z,5872
2019-06-27T08:40:27.661Z,5864
2019-06-27T08:41:37.814Z,5944
2019-06-27T08:42:47.952Z,7872
2019-06-27T08:43:58.103Z,21504
2019-06-27T08:45:08.236Z,38656
2019-06-27T08:46:18.464Z,46496
2019-06-27T08:47:28.327Z,47040
2019-06-27T08:48:38.676Z,47488
2019-06-27T08:51:04.419Z,32608
2019-06-27T08:52:14.567Z,10688
2019-06-27T08:53:24.444Z,6656
2019-06-27T08:54:34.565Z,6616
2019-06-27T08:55:44.730Z,6628
2019-06-27T08:56:54.870Z,6640
2019-06-27T08:58:05.050Z,6564
2019-06-27T08:59:15.220Z,6560
2019-06-27T09:00:25.332Z,6800
2019-06-27T09:01:35.484Z,7208
2019-06-27T09:02:45.617Z,8768
2019-06-27T09:03:55.770Z,23776
2019-06-27T09:05:05.938Z,44768
2019-06-27T09:06:15.894Z,53952
2019-06-27T09:07:28.886Z,54752
2019-06-27T09:08:39.078Z,54208
2019-06-27T09:09:49.423Z,54944
2019-06-27T09:10:59.435Z,55328
2019-06-27T09:12:09.591Z,53696
2019-06-27T09:13:23.287Z,55936
2019-06-27T09:14:33.466Z,57376
2019-06-27T09:15:44.553Z,56224
2019-06-27T09:16:55.899Z,59232
2019-06-27T09:18:06.030Z,60672
2019-06-27T09:19:16.173Z,59264
2019-06-27T09:20:26.385Z,62368
2019-06-27T09:25:24.774Z,62112
2019-06-27T09:26:34.959Z,62112
2019-06-27T09:27:45.103Z,61984
2019-06-27T09:28:55.489Z,62528
2019-06-27T09:30:05.637Z,63168
2019-06-27T09:31:15.800Z,62272
2019-06-27T09:32:33.016Z,62656
2019-06-27T09:33:42.901Z,64096
2019-06-27T09:35:01.356Z,62784
2019-06-27T09:36:11.536Z,63456
2019-06-27T09:37:25.518Z,65600
2019-06-27T09:38:37.881Z,64416
2019-06-27T09:39:48.049Z,63936
2019-06-27T09:41:00.857Z,65856
2019-06-27T09:42:10.998Z,67168
2019-06-27T09:43:21.139Z,66784
2019-06-27T09:44:31.286Z,64256
2019-06-27T09:45:46.144Z,64736
2019-06-27T09:46:56.276Z,66016
2019-06-27T09:48:06.447Z,65856
2019-06-27T09:49:16.338Z,67872
2019-06-27T09:50:28.884Z,68384
2019-06-27T09:52:55.224Z,70272
2019-06-27T09:54:05.416Z,66912
2019-06-27T09:55:18.887Z,65632
2019-06-27T09:56:29.056Z,67936
2019-06-27T09:57:39.235Z,64768
2019-06-27T09:58:49.407Z,63392
2019-06-27T09:59:59.555Z,67008
2019-06-27T10:01:14.185Z,67712
2019-06-27T10:02:40.421Z,66144
2019-06-27T10:03:51.283Z,69440
2019-06-27T10:05:01.439Z,70592
2019-06-27T10:06:11.600Z,67392
2019-06-27T10:07:22.762Z,68992
2019-06-27T10:08:32.929Z,72256
2019-06-27T10:09:43.145Z,70784
2019-06-27T10:10:53.592Z,68096
2019-06-27T10:12:03.774Z,70656
2019-06-27T10:13:13.947Z,72384
2019-06-27T10:14:23.843Z,73760
2019-06-27T10:15:34.223Z,79904
2019-06-27T10:16:44.385Z,81184
2019-06-27T10:17:54.772Z,79456
2019-06-27T10:19:04.959Z,81888
2019-06-27T10:20:15.107Z,86048
2019-06-27T10:21:25.343Z,82880
2019-06-27T10:22:35.500Z,82208
2019-06-27T10:23:45.713Z,84288
2019-06-27T10:26:12.072Z,85280
2019-06-27T10:27:21.982Z,85024
2019-06-27T10:28:32.362Z,84896
2019-06-27T10:29:43.878Z,84576
2019-06-27T10:32:10.720Z,82816
2019-06-27T10:35:51.377Z,85600
2019-06-27T10:37:04.717Z,83968
2019-06-27T10:38:17.233Z,84384
2019-06-27T10:39:27.802Z,87168
2019-06-27T10:40:41.382Z,87424
2019-06-27T10:43:04.753Z,82720
2019-06-27T10:44:14.909Z,84288
2019-06-27T10:45:24.826Z,85216
2019-06-27T10:46:39.833Z,83936
2019-06-27T10:47:51.160Z,83648
2019-06-27T10:49:01.450Z,83712
2019-06-27T10:50:11.674Z,83744
2019-06-27T10:51:21.919Z,85984
2019-06-27T10:52:31.871Z,86752
2019-06-27T10:57:35.787Z,87264
2019-06-27T10:58:48.951Z,86272
2019-06-27T10:59:59.103Z,85536
2019-06-27T11:01:09.763Z,86496
2019-06-27T11:02:20.374Z,86432
2019-06-27T11:03:31.759Z,86496
2019-06-27T11:04:59.456Z,87456
2019-06-27T20:39:23.705Z,0
2019-06-27T20:40:33.880Z,0
2019-06-27T20:41:44.050Z,0
2019-06-27T20:42:54.216Z,0
2019-06-27T20:44:04.134Z,0
2019-06-27T20:45:14.348Z,0
2019-06-27T20:46:24.521Z,0
2019-06-27T20:47:34.671Z,0
2019-06-27T20:48:44.953Z,0
2019-06-27T20:49:55.161Z,0
2019-06-27T20:51:05.359Z,0
2019-06-27T20:52:15.590Z,0
2019-06-27T20:53:25.797Z,0
2019-06-27T20:54:35.999Z,0
2019-06-27T20:55:46.183Z,0
2019-06-27T20:56:56.367Z,0
2019-06-27T20:58:06.372Z,0
2019-06-27T20:59:16.287Z,0
2019-06-27T21:00:26.450Z,0
2019-06-27T21:01:39.017Z,0
2019-06-27T21:02:52.181Z,0
2019-06-27T21:04:02.413Z,0
2019-06-27T21:05:13.557Z,0
2019-06-27T21:06:23.696Z,0
2019-06-27T21:07:34.195Z,0
2019-06-27T21:09:02.201Z,0
2019-06-27T21:10:12.420Z,0
2019-06-27T21:11:22.597Z,0
2019-06-27T21:12:32.770Z,0
2019-06-27T21:13:42.905Z,0
2019-06-27T21:14:52.833Z,0
2019-06-27T21:16:02.995Z,0
2019-06-27T21:17:13.149Z,0
2019-06-27T21:18:23.356Z,0
2019-06-27T21:19:33.504Z,0
2019-06-27T21:20:43.651Z,0
2019-06-27T21:21:53.974Z,0
2019-06-27T21:23:07.027Z,0
2019-06-27T21:25:32.761Z,0
2019-06-27T21:26:45.760Z,0
2019-06-27T21:27:55.902Z,0
2019-06-27T21:29:06.084Z,0
2019-06-27T21:30:16.323Z,0
2019-06-27T21:31:26.201Z,0
2019-06-27T21:32:39.254Z,0
2019-06-27T21:33:49.395Z,0
2019-06-27T21:34:59.556Z,0
2019-06-27T21:36:09.849Z,0
2019-06-27T21:37:19.993Z,0
2019-06-27T21:38:30.120Z,0
2019-06-27T21:39:40.295Z,0
2019-06-27T21:40:50.465Z,0
2019-06-27T21:42:00.604Z,0
2019-06-27T21:43:10.800Z,0
2019-06-27T21:44:20.948Z,0
2019-06-27T21:45:31.103Z,0
2019-06-27T21:46:41.268Z,0
2019-06-27T21:47:51.415Z,0
2019-06-27T21:49:01.577Z,0
2019-06-27T21:50:11.920Z,0
2019-06-27T21:51:22.058Z,0
2019-06-27T21:52:32.220Z,0
2019-06-27T21:53:42.399Z,0
2019-06-27T21:54:52.532Z,0
2019-06-27T21:56:02.698Z,0
2019-06-27T21:57:12.874Z,0
2019-06-27T21:58:22.632Z,0
2019-06-27T21:59:32.517Z,0
2019-06-27T22:00:42.727Z,0
2019-06-27T22:01:52.883Z,0
2019-06-27T22:03:03.036Z,0
2019-06-27T22:04:12.931Z,0
2019-06-27T22:05:23.130Z,0
2019-06-27T22:06:33.292Z,0
2019-06-27T22:07:43.477Z,0
2019-06-27T22:08:53.635Z,0
2019-06-27T22:10:03.927Z,0
2019-06-27T22:11:14.131Z,0
2019-06-27T22:12:24.351Z,0
2019-06-27T22:13:34.488Z,0
2019-06-27T22:14:44.646Z,0
2019-06-27T22:15:54.796Z,0
2019-06-27T22:17:04.933Z,0
2019-06-27T22:18:14.862Z,0
2019-06-27T22:19:25.006Z,0
2019-06-27T22:20:35.166Z,0
2019-06-27T22:21:47.548Z,0
2019-06-27T22:22:57.744Z,0
2019-06-27T22:24:07.938Z,0
2019-06-27T22:25:18.068Z,0
2019-06-27T22:26:28.205Z,0
2019-06-27T22:27:38.336Z,0
2019-06-27T22:28:48.515Z,0
2019-06-27T22:29:58.695Z,0
2019-06-27T22:31:08.840Z,0
2019-06-27T22:32:18.642Z,0
2019-06-27T22:33:28.774Z,0
2019-06-27T22:34:38.952Z,0
2019-06-27T22:35:49.110Z,0
2019-06-27T22:36:59.033Z,0
2019-06-27T22:38:09.219Z,0
2019-06-27T22:39:19.351Z,0
2019-06-27T22:40:29.262Z,0
2019-06-27T22:41:39.436Z,0
2019-06-27T22:42:49.557Z,0
2019-06-27T22:43:59.751Z,0
2019-06-27T22:45:09.915Z,0
2019-06-27T22:46:20.043Z,0
2019-06-27T22:47:30.173Z,0
2019-06-27T22:48:40.290Z,0
2019-06-27T22:49:50.434Z,0
2019-06-27T22:51:00.599Z,0
2019-06-27T22:52:10.759Z,0
2019-06-27T22:53:23.402Z,0
2019-06-27T22:54:33.543Z,0
2019-06-27T22:55:43.659Z,0
2019-06-27T22:56:53.774Z,0
2019-06-27T22:58:03.884Z,0
2019-06-27T22:59:14.024Z,0
2019-06-27T23:00:24.147Z,0
2019-06-27T23:01:34.352Z,0
2019-06-27T23:02:44.505Z,0
2019-06-27T23:03:54.703Z,0
2019-06-27T23:05:04.857Z,0
2019-06-27T23:06:15.046Z,0
2019-06-27T23:07:25.196Z,0
2019-06-27T23:08:35.328Z,0
2019-06-27T23:10:00.740Z,0
2019-06-27T23:11:10.910Z,0
2019-06-27T23:12:20.806Z,0
2019-06-27T23:13:30.936Z,0
2019-06-27T23:14:41.061Z,0
2019-06-27T23:15:51.195Z,0
2019-06-27T23:17:01.392Z,0
2019-06-27T23:18:11.500Z,0
2019-06-27T23:19:21.633Z,0
2019-06-27T23:20:31.769Z,0
2019-06-27T23:21:41.920Z,0
2019-06-27T23:22:52.042Z,0
2019-06-27T23:24:02.171Z,0
2019-06-27T23:25:12.301Z,0
2019-06-27T23:26:22.405Z,0
2019-06-27T23:27:32.525Z,0
2019-06-27T23:28:42.647Z,0
2019-06-27T23:29:52.823Z,0
2019-06-27T23:31:02.686Z,0
2019-06-27T23:32:12.597Z,0
2019-06-27T23:33:22.724Z,0
2019-06-27T23:34:32.840Z,0
2019-06-27T23:35:42.947Z,0
2019-06-27T23:36:53.063Z,0
2019-06-27T23:38:03.190Z,0
2019-06-27T23:39:13.418Z,0
2019-06-27T23:40:23.543Z,0
2019-06-27T23:41:33.667Z,0
2019-06-27T23:42:43.790Z,0
2019-06-27T23:43:53.919Z,0
2019-06-27T23:45:04.298Z,0
2019-06-27T23:46:14.082Z,0
2019-06-27T23:47:24.010Z,0
2019-06-27T23:48:34.179Z,0
2019-06-27T23:49:44.283Z,0
2019-06-27T23:50:54.413Z,0
2019-06-27T23:52:04.582Z,0
2019-06-27T23:53:14.710Z,0
2019-06-27T23:54:24.840Z,0
2019-06-27T23:55:34.994Z,0
2019-06-27T23:56:44.761Z,0
2019-06-27T23:57:54.876Z,0
2019-06-27T23:59:04.998Z,0
